Terminal Aerodrome Forecast
Issued by NWS Sioux Falls, SD

Home | Current Version | Previous Version | Graphics & Text | Print | Product List | Glossary Off
Versions: 1 2 3 4 5 6 7 8 9 10 11 12 13 14

000
FTUS43 KFSD 071300 AAA
TAFHON
TAF AMD
KHON 071316Z 0713/0812 20005KT P6SM BKN100
      TEMPO 0713/0715 6SM -TSRA BKN060CB
     FM071500 21007KT P6SM BKN100
     FM072000 27009KT P6SM BKN120
     FM080000 32010KT P6SM SCT080
     FM080600 32007KT P6SM SKC=

USA.gov is the U.S. government's official web portal to all federal, state and local government web resources and services.